sensor_id;sensor_type;location;lat;lon;timestamp;P1;durP1;ratioP1;P2;durP2;ratioP2
71959;SDS011;59832;51.146;14.024;2023-04-24T00:01:19;4.00;;;3.60;;
71959;SDS011;59832;51.146;14.024;2023-04-24T00:03:45;4.75;;;3.97;;
71959;SDS011;59832;51.146;14.024;2023-04-24T00:06:12;3.90;;;3.60;;
71959;SDS011;59832;51.146;14.024;2023-04-24T00:08:38;5.30;;;4.20;;
71959;SDS011;59832;51.146;14.024;2023-04-24T00:11:05;3.92;;;3.58;;
71959;SDS011;59832;51.146;14.024;2023-04-24T00:13:31;3.85;;;3.55;;
71959;SDS011;59832;51.146;14.024;2023-04-24T00:15:57;5.00;;;4.28;;
71959;SDS011;59832;51.146;14.024;2023-04-24T00:18:24;3.75;;;3.45;;
71959;SDS011;59832;51.146;14.024;2023-04-24T00:20:50;4.72;;;3.67;;
71959;SDS011;59832;51.146;14.024;2023-04-24T00:23:17;4.28;;;3.50;;
71959;SDS011;59832;51.146;14.024;2023-04-24T00:25:43;4.53;;;4.10;;
71959;SDS011;59832;51.146;14.024;2023-04-24T00:28:09;5.00;;;4.13;;
71959;SDS011;59832;51.146;14.024;2023-04-24T00:30:36;3.70;;;3.40;;
71959;SDS011;59832;51.146;14.024;2023-04-24T00:33:02;6.47;;;3.83;;
71959;SDS011;59832;51.146;14.024;2023-04-24T00:35:29;3.83;;;3.53;;
71959;SDS011;59832;51.146;14.024;2023-04-24T00:37:55;4.78;;;4.25;;
71959;SDS011;59832;51.146;14.024;2023-04-24T00:40:22;4.35;;;3.95;;
71959;SDS011;59832;51.146;14.024;2023-04-24T00:42:48;4.32;;;3.55;;
71959;SDS011;59832;51.146;14.024;2023-04-24T00:45:15;3.95;;;3.50;;
71959;SDS011;59832;51.146;14.024;2023-04-24T00:47:42;4.03;;;3.63;;
71959;SDS011;59832;51.146;14.024;2023-04-24T00:50:08;3.75;;;3.45;;
71959;SDS011;59832;51.146;14.024;2023-04-24T00:52:35;3.88;;;3.47;;
71959;SDS011;59832;51.146;14.024;2023-04-24T00:55:02;3.95;;;3.55;;
71959;SDS011;59832;51.146;14.024;2023-04-24T00:57:28;4.40;;;4.00;;
71959;SDS011;59832;51.146;14.024;2023-04-24T00:59:55;4.28;;;3.70;;
71959;SDS011;59832;51.146;14.024;2023-04-24T01:02:22;4.32;;;3.95;;
71959;SDS011;59832;51.146;14.024;2023-04-24T01:04:50;4.00;;;3.60;;
71959;SDS011;59832;51.146;14.024;2023-04-24T01:07:20;4.72;;;3.90;;
71959;SDS011;59832;51.146;14.024;2023-04-24T01:09:47;4.22;;;3.92;;
71959;SDS011;59832;51.146;14.024;2023-04-24T01:12:17;4.30;;;3.88;;
71959;SDS011;59832;51.146;14.024;2023-04-24T01:14:44;5.03;;;4.53;;
71959;SDS011;59832;51.146;14.024;2023-04-24T01:17:11;4.60;;;4.20;;
71959;SDS011;59832;51.146;14.024;2023-04-24T01:19:38;5.00;;;4.50;;
71959;SDS011;59832;51.146;14.024;2023-04-24T01:22:11;4.60;;;4.20;;
71959;SDS011;59832;51.146;14.024;2023-04-24T01:24:39;5.20;;;4.13;;
71959;SDS011;59832;51.146;14.024;2023-04-24T01:27:06;4.68;;;4.20;;
71959;SDS011;59832;51.146;14.024;2023-04-24T01:29:34;4.72;;;4.22;;
71959;SDS011;59832;51.146;14.024;2023-04-24T01:32:00;4.80;;;4.40;;
71959;SDS011;59832;51.146;14.024;2023-04-24T01:34:27;5.88;;;5.30;;
71959;SDS011;59832;51.146;14.024;2023-04-24T01:36:53;5.53;;;5.00;;
71959;SDS011;59832;51.146;14.024;2023-04-24T01:39:20;6.82;;;5.10;;
71959;SDS011;59832;51.146;14.024;2023-04-24T01:41:46;4.60;;;4.20;;
71959;SDS011;59832;51.146;14.024;2023-04-24T01:44:13;5.55;;;4.60;;
71959;SDS011;59832;51.146;14.024;2023-04-24T01:46:40;4.82;;;4.43;;
71959;SDS011;59832;51.146;14.024;2023-04-24T01:49:07;4.43;;;4.03;;
71959;SDS011;59832;51.146;14.024;2023-04-24T01:51:33;7.25;;;4.28;;
71959;SDS011;59832;51.146;14.024;2023-04-24T01:54:00;5.88;;;4.53;;
71959;SDS011;59832;51.146;14.024;2023-04-24T01:56:27;4.60;;;4.20;;
71959;SDS011;59832;51.146;14.024;2023-04-24T01:58:55;4.70;;;4.30;;
71959;SDS011;59832;51.146;14.024;2023-04-24T02:01:23;4.72;;;4.30;;
71959;SDS011;59832;51.146;14.024;2023-04-24T02:03:51;4.60;;;4.20;;
71959;SDS011;59832;51.146;14.024;2023-04-24T02:06:17;5.30;;;4.00;;
71959;SDS011;59832;51.146;14.024;2023-04-24T02:08:44;5.80;;;4.70;;
71959;SDS011;59832;51.146;14.024;2023-04-24T02:11:10;6.32;;;4.50;;
71959;SDS011;59832;51.146;14.024;2023-04-24T02:13:37;4.60;;;4.20;;
71959;SDS011;59832;51.146;14.024;2023-04-24T02:16:03;5.68;;;4.70;;
71959;SDS011;59832;51.146;14.024;2023-04-24T02:18:30;6.30;;;5.70;;
71959;SDS011;59832;51.146;14.024;2023-04-24T02:20:56;5.70;;;5.13;;
71959;SDS011;59832;51.146;14.024;2023-04-24T02:23:22;5.38;;;4.88;;
71959;SDS011;59832;51.146;14.024;2023-04-24T02:25:49;5.15;;;4.50;;
71959;SDS011;59832;51.146;14.024;2023-04-24T02:28:15;5.57;;;5.07;;
71959;SDS011;59832;51.146;14.024;2023-04-24T02:30:42;5.20;;;4.80;;
71959;SDS011;59832;51.146;14.024;2023-04-24T02:33:08;5.20;;;4.75;;
71959;SDS011;59832;51.146;14.024;2023-04-24T02:35:34;5.55;;;5.05;;
71959;SDS011;59832;51.146;14.024;2023-04-24T02:38:01;6.70;;;5.30;;
71959;SDS011;59832;51.146;14.024;2023-04-24T02:40:27;5.45;;;4.95;;
71959;SDS011;59832;51.146;14.024;2023-04-24T02:42:54;5.65;;;5.15;;
71959;SDS011;59832;51.146;14.024;2023-04-24T02:45:20;5.18;;;4.68;;
71959;SDS011;59832;51.146;14.024;2023-04-24T02:47:47;5.40;;;4.80;;
71959;SDS011;59832;51.146;14.024;2023-04-24T02:50:13;5.53;;;5.00;;
71959;SDS011;59832;51.146;14.024;2023-04-24T02:52:40;5.13;;;4.53;;
71959;SDS011;59832;51.146;14.024;2023-04-24T02:55:06;5.28;;;4.75;;
71959;SDS011;59832;51.146;14.024;2023-04-24T02:57:34;6.38;;;4.70;;
71959;SDS011;59832;51.146;14.024;2023-04-24T03:00:00;5.35;;;4.85;;
71959;SDS011;59832;51.146;14.024;2023-04-24T03:02:27;5.20;;;4.70;;
71959;SDS011;59832;51.146;14.024;2023-04-24T03:04:53;5.40;;;4.90;;
71959;SDS011;59832;51.146;14.024;2023-04-24T03:09:47;5.50;;;4.55;;
71959;SDS011;59832;51.146;14.024;2023-04-24T03:12:14;5.07;;;4.63;;
71959;SDS011;59832;51.146;14.024;2023-04-24T03:14:40;5.13;;;4.57;;
71959;SDS011;59832;51.146;14.024;2023-04-24T03:17:06;5.40;;;4.88;;
71959;SDS011;59832;51.146;14.024;2023-04-24T03:19:33;5.22;;;4.50;;
71959;SDS011;59832;51.146;14.024;2023-04-24T03:22:01;7.03;;;5.32;;
71959;SDS011;59832;51.146;14.024;2023-04-24T03:24:28;5.40;;;4.88;;
71959;SDS011;59832;51.146;14.024;2023-04-24T03:26:54;5.28;;;4.78;;
71959;SDS011;59832;51.146;14.024;2023-04-24T03:29:22;4.75;;;4.00;;
71959;SDS011;59832;51.146;14.024;2023-04-24T03:31:49;5.10;;;4.03;;
71959;SDS011;59832;51.146;14.024;2023-04-24T03:34:16;4.13;;;3.70;;
71959;SDS011;59832;51.146;14.024;2023-04-24T03:36:42;3.28;;;2.95;;
71959;SDS011;59832;51.146;14.024;2023-04-24T03:39:09;3.10;;;2.80;;
71959;SDS011;59832;51.146;14.024;2023-04-24T03:41:36;3.42;;;3.13;;
71959;SDS011;59832;51.146;14.024;2023-04-24T03:44:02;3.65;;;3.03;;
71959;SDS011;59832;51.146;14.024;2023-04-24T03:46:29;3.30;;;3.00;;
71959;SDS011;59832;51.146;14.024;2023-04-24T03:48:55;3.10;;;2.72;;
71959;SDS011;59832;51.146;14.024;2023-04-24T03:51:22;4.05;;;2.85;;
71959;SDS011;59832;51.146;14.024;2023-04-24T03:53:49;2.72;;;2.42;;
71959;SDS011;59832;51.146;14.024;2023-04-24T03:56:15;2.75;;;2.55;;
71959;SDS011;59832;51.146;14.024;2023-04-24T03:58:42;2.60;;;2.40;;
71959;SDS011;59832;51.146;14.024;2023-04-24T04:01:09;2.85;;;2.65;;
71959;SDS011;59832;51.146;14.024;2023-04-24T04:03:36;2.55;;;2.35;;
71959;SDS011;59832;51.146;14.024;2023-04-24T04:06:03;3.42;;;2.88;;
71959;SDS011;59832;51.146;14.024;2023-04-24T04:08:30;2.40;;;2.30;;
71959;SDS011;59832;51.146;14.024;2023-04-24T04:10:56;3.40;;;2.50;;
71959;SDS011;59832;51.146;14.024;2023-04-24T04:13:23;3.03;;;2.50;;
71959;SDS011;59832;51.146;14.024;2023-04-24T04:15:49;2.55;;;2.30;;
71959;SDS011;59832;51.146;14.024;2023-04-24T04:18:16;3.15;;;2.65;;
71959;SDS011;59832;51.146;14.024;2023-04-24T04:20:42;4.00;;;3.07;;
71959;SDS011;59832;51.146;14.024;2023-04-24T04:23:09;4.30;;;3.35;;
71959;SDS011;59832;51.146;14.024;2023-04-24T04:25:35;2.75;;;2.53;;
71959;SDS011;59832;51.146;14.024;2023-04-24T04:28:02;3.22;;;2.80;;
71959;SDS011;59832;51.146;14.024;2023-04-24T04:30:28;2.60;;;2.40;;
71959;SDS011;59832;51.146;14.024;2023-04-24T04:32:58;2.88;;;2.25;;
71959;SDS011;59832;51.146;14.024;2023-04-24T04:35:25;3.92;;;2.38;;
71959;SDS011;59832;51.146;14.024;2023-04-24T04:37:51;2.47;;;2.28;;
71959;SDS011;59832;51.146;14.024;2023-04-24T04:40:18;2.15;;;1.92;;
71959;SDS011;59832;51.146;14.024;2023-04-24T04:42:45;1.80;;;1.70;;
71959;SDS011;59832;51.146;14.024;2023-04-24T04:45:12;1.83;;;1.70;;
71959;SDS011;59832;51.146;14.024;2023-04-24T04:47:38;1.48;;;1.38;;
71959;SDS011;59832;51.146;14.024;2023-04-24T04:50:06;2.22;;;1.52;;
71959;SDS011;59832;51.146;14.024;2023-04-24T04:52:32;1.52;;;1.42;;
71959;SDS011;59832;51.146;14.024;2023-04-24T04:54:59;1.60;;;1.45;;
71959;SDS011;59832;51.146;14.024;2023-04-24T04:57:25;1.40;;;1.30;;
71959;SDS011;59832;51.146;14.024;2023-04-24T04:59:51;2.63;;;1.30;;
71959;SDS011;59832;51.146;14.024;2023-04-24T05:02:18;4.75;;;1.45;;
71959;SDS011;59832;51.146;14.024;2023-04-24T05:04:44;1.30;;;1.20;;
71959;SDS011;59832;51.146;14.024;2023-04-24T05:07:12;2.25;;;1.33;;
71959;SDS011;59832;51.146;14.024;2023-04-24T05:09:38;1.83;;;1.23;;
71959;SDS011;59832;51.146;14.024;2023-04-24T05:12:04;1.55;;;1.10;;
71959;SDS011;59832;51.146;14.024;2023-04-24T05:14:31;2.15;;;0.90;;
71959;SDS011;59832;51.146;14.024;2023-04-24T05:16:57;1.38;;;1.02;;
71959;SDS011;59832;51.146;14.024;2023-04-24T05:19:24;2.85;;;0.93;;
71959;SDS011;59832;51.146;14.024;2023-04-24T05:21:51;1.35;;;0.93;;
71959;SDS011;59832;51.146;14.024;2023-04-24T05:24:17;1.13;;;1.00;;
71959;SDS011;59832;51.146;14.024;2023-04-24T05:26:43;1.27;;;0.93;;
71959;SDS011;59832;51.146;14.024;2023-04-24T05:29:10;2.00;;;0.80;;
71959;SDS011;59832;51.146;14.024;2023-04-24T05:31:36;1.98;;;0.90;;
71959;SDS011;59832;51.146;14.024;2023-04-24T05:34:03;2.30;;;0.88;;
71959;SDS011;59832;51.146;14.024;2023-04-24T05:36:29;2.25;;;0.80;;
71959;SDS011;59832;51.146;14.024;2023-04-24T05:38:56;3.53;;;1.30;;
71959;SDS011;59832;51.146;14.024;2023-04-24T05:41:23;0.85;;;0.60;;
71959;SDS011;59832;51.146;14.024;2023-04-24T05:43:49;1.98;;;0.95;;
71959;SDS011;59832;51.146;14.024;2023-04-24T05:46:17;1.10;;;1.00;;
71959;SDS011;59832;51.146;14.024;2023-04-24T05:48:43;0.75;;;0.75;;
71959;SDS011;59832;51.146;14.024;2023-04-24T05:51:10;0.80;;;0.80;;
71959;SDS011;59832;51.146;14.024;2023-04-24T05:53:36;1.17;;;0.70;;
71959;SDS011;59832;51.146;14.024;2023-04-24T05:56:03;0.88;;;0.60;;
71959;SDS011;59832;51.146;14.024;2023-04-24T05:58:29;1.13;;;0.70;;
71959;SDS011;59832;51.146;14.024;2023-04-24T06:00:56;1.90;;;0.82;;
71959;SDS011;59832;51.146;14.024;2023-04-24T06:03:24;0.60;;;0.60;;
71959;SDS011;59832;51.146;14.024;2023-04-24T06:05:51;1.50;;;0.70;;
71959;SDS011;59832;51.146;14.024;2023-04-24T06:08:17;1.58;;;0.60;;
71959;SDS011;59832;51.146;14.024;2023-04-24T06:10:44;2.38;;;0.63;;
71959;SDS011;59832;51.146;14.024;2023-04-24T06:13:10;2.17;;;0.73;;
71959;SDS011;59832;51.146;14.024;2023-04-24T06:15:37;0.77;;;0.70;;
71959;SDS011;59832;51.146;14.024;2023-04-24T06:18:04;0.93;;;0.68;;
71959;SDS011;59832;51.146;14.024;2023-04-24T06:20:30;1.63;;;0.80;;
71959;SDS011;59832;51.146;14.024;2023-04-24T06:22:57;0.73;;;0.60;;
71959;SDS011;59832;51.146;14.024;2023-04-24T06:25:27;1.13;;;0.70;;
71959;SDS011;59832;51.146;14.024;2023-04-24T06:27:54;0.98;;;0.60;;
71959;SDS011;59832;51.146;14.024;2023-04-24T06:30:21;1.13;;;0.60;;
71959;SDS011;59832;51.146;14.024;2023-04-24T06:32:48;0.73;;;0.73;;
71959;SDS011;59832;51.146;14.024;2023-04-24T06:35:15;0.70;;;0.70;;
71959;SDS011;59832;51.146;14.024;2023-04-24T06:37:41;0.70;;;0.70;;
71959;SDS011;59832;51.146;14.024;2023-04-24T06:40:08;1.23;;;0.65;;
71959;SDS011;59832;51.146;14.024;2023-04-24T06:42:36;0.40;;;0.40;;
71959;SDS011;59832;51.146;14.024;2023-04-24T06:45:02;0.52;;;0.50;;
71959;SDS011;59832;51.146;14.024;2023-04-24T06:47:29;0.80;;;0.75;;
71959;SDS011;59832;51.146;14.024;2023-04-24T06:49:56;1.40;;;0.80;;
71959;SDS011;59832;51.146;14.024;2023-04-24T06:52:23;0.65;;;0.60;;
71959;SDS011;59832;51.146;14.024;2023-04-24T06:54:49;1.17;;;0.80;;
71959;SDS011;59832;51.146;14.024;2023-04-24T06:57:17;2.03;;;1.00;;
71959;SDS011;59832;51.146;14.024;2023-04-24T06:59:44;1.35;;;0.60;;
71959;SDS011;59832;51.146;14.024;2023-04-24T07:02:11;1.17;;;0.47;;
71959;SDS011;59832;51.146;14.024;2023-04-24T07:04:37;0.50;;;0.40;;
71959;SDS011;59832;51.146;14.024;2023-04-24T07:07:04;0.80;;;0.60;;
71959;SDS011;59832;51.146;14.024;2023-04-24T07:09:32;0.73;;;0.52;;
71959;SDS011;59832;51.146;14.024;2023-04-24T07:12:01;0.57;;;0.40;;
71959;SDS011;59832;51.146;14.024;2023-04-24T07:14:27;1.30;;;0.60;;
71959;SDS011;59832;51.146;14.024;2023-04-24T07:16:54;0.75;;;0.60;;
71959;SDS011;59832;51.146;14.024;2023-04-24T07:19:20;0.90;;;0.70;;
71959;SDS011;59832;51.146;14.024;2023-04-24T07:21:47;1.85;;;0.52;;
71959;SDS011;59832;51.146;14.024;2023-04-24T07:24:13;0.90;;;0.40;;
71959;SDS011;59832;51.146;14.024;2023-04-24T07:26:40;0.82;;;0.60;;
71959;SDS011;59832;51.146;14.024;2023-04-24T07:29:06;0.40;;;0.40;;
71959;SDS011;59832;51.146;14.024;2023-04-24T07:31:33;1.52;;;0.75;;
71959;SDS011;59832;51.146;14.024;2023-04-24T07:34:00;1.08;;;0.75;;
71959;SDS011;59832;51.146;14.024;2023-04-24T07:36:26;1.02;;;0.70;;
71959;SDS011;59832;51.146;14.024;2023-04-24T07:38:54;1.00;;;0.82;;
71959;SDS011;59832;51.146;14.024;2023-04-24T07:41:22;1.98;;;0.70;;
71959;SDS011;59832;51.146;14.024;2023-04-24T07:43:50;0.98;;;0.60;;
71959;SDS011;59832;51.146;14.024;2023-04-24T07:46:17;0.70;;;0.70;;
71959;SDS011;59832;51.146;14.024;2023-04-24T07:48:43;0.80;;;0.80;;
71959;SDS011;59832;51.146;14.024;2023-04-24T07:51:10;1.58;;;0.70;;
71959;SDS011;59832;51.146;14.024;2023-04-24T07:53:38;0.77;;;0.77;;
71959;SDS011;59832;51.146;14.024;2023-04-24T07:56:04;1.30;;;1.05;;
71959;SDS011;59832;51.146;14.024;2023-04-24T07:58:31;2.13;;;0.77;;
71959;SDS011;59832;51.146;14.024;2023-04-24T08:00:57;1.15;;;1.00;;
71959;SDS011;59832;51.146;14.024;2023-04-24T08:03:24;1.00;;;0.90;;
71959;SDS011;59832;51.146;14.024;2023-04-24T08:05:51;0.70;;;0.70;;
71959;SDS011;59832;51.146;14.024;2023-04-24T08:08:19;0.70;;;0.70;;
71959;SDS011;59832;51.146;14.024;2023-04-24T08:10:47;2.78;;;0.43;;
71959;SDS011;59832;51.146;14.024;2023-04-24T08:13:13;1.70;;;0.80;;
71959;SDS011;59832;51.146;14.024;2023-04-24T08:15:40;1.85;;;0.60;;
71959;SDS011;59832;51.146;14.024;2023-04-24T08:18:06;1.67;;;0.75;;
71959;SDS011;59832;51.146;14.024;2023-04-24T08:20:33;1.65;;;0.50;;
71959;SDS011;59832;51.146;14.024;2023-04-24T08:25:27;0.43;;;0.43;;
71959;SDS011;59832;51.146;14.024;2023-04-24T08:27:53;0.93;;;0.70;;
71959;SDS011;59832;51.146;14.024;2023-04-24T08:30:20;0.80;;;0.50;;
71959;SDS011;59832;51.146;14.024;2023-04-24T08:32:47;1.27;;;0.40;;
71959;SDS011;59832;51.146;14.024;2023-04-24T08:35:13;2.00;;;0.60;;
71959;SDS011;59832;51.146;14.024;2023-04-24T08:37:40;2.90;;;0.50;;
71959;SDS011;59832;51.146;14.024;2023-04-24T08:40:12;0.70;;;0.43;;
71959;SDS011;59832;51.146;14.024;2023-04-24T08:42:41;0.90;;;0.50;;
71959;SDS011;59832;51.146;14.024;2023-04-24T08:45:11;2.28;;;0.40;;
71959;SDS011;59832;51.146;14.024;2023-04-24T08:47:39;0.85;;;0.47;;
71959;SDS011;59832;51.146;14.024;2023-04-24T08:50:07;0.98;;;0.43;;
71959;SDS011;59832;51.146;14.024;2023-04-24T08:56:15;0.77;;;0.30;;
71959;SDS011;59832;51.146;14.024;2023-04-24T08:58:42;0.50;;;0.43;;
71959;SDS011;59832;51.146;14.024;2023-04-24T09:01:09;3.13;;;0.50;;
71959;SDS011;59832;51.146;14.024;2023-04-24T09:03:36;1.30;;;0.52;;
71959;SDS011;59832;51.146;14.024;2023-04-24T09:06:04;0.88;;;0.40;;
71959;SDS011;59832;51.146;14.024;2023-04-24T09:08:33;1.55;;;0.55;;
71959;SDS011;59832;51.146;14.024;2023-04-24T09:10:59;1.80;;;0.60;;
71959;SDS011;59832;51.146;14.024;2023-04-24T09:13:28;1.48;;;0.63;;
71959;SDS011;59832;51.146;14.024;2023-04-24T09:15:56;1.00;;;0.57;;
71959;SDS011;59832;51.146;14.024;2023-04-24T09:18:23;1.83;;;0.65;;
71959;SDS011;59832;51.146;14.024;2023-04-24T09:21:03;0.77;;;0.60;;
71959;SDS011;59832;51.146;14.024;2023-04-24T09:23:32;3.17;;;0.60;;
71959;SDS011;59832;51.146;14.024;2023-04-24T09:25:59;2.27;;;0.93;;
71959;SDS011;59832;51.146;14.024;2023-04-24T09:28:31;1.33;;;0.60;;
71959;SDS011;59832;51.146;14.024;2023-04-24T09:31:03;1.08;;;0.70;;
71959;SDS011;59832;51.146;14.024;2023-04-24T09:33:30;2.22;;;0.80;;
71959;SDS011;59832;51.146;14.024;2023-04-24T09:35:57;0.60;;;0.43;;
71959;SDS011;59832;51.146;14.024;2023-04-24T09:38:35;1.05;;;0.50;;
71959;SDS011;59832;51.146;14.024;2023-04-24T09:41:04;1.05;;;0.60;;
71959;SDS011;59832;51.146;14.024;2023-04-24T09:43:32;1.92;;;0.70;;
71959;SDS011;59832;51.146;14.024;2023-04-24T09:46:00;2.58;;;0.50;;
71959;SDS011;59832;51.146;14.024;2023-04-24T09:48:32;0.77;;;0.65;;
71959;SDS011;59832;51.146;14.024;2023-04-24T09:51:00;0.65;;;0.60;;
71959;SDS011;59832;51.146;14.024;2023-04-24T09:53:27;2.28;;;1.30;;
71959;SDS011;59832;51.146;14.024;2023-04-24T09:55:54;1.70;;;1.13;;
71959;SDS011;59832;51.146;14.024;2023-04-24T09:58:27;2.25;;;0.95;;
71959;SDS011;59832;51.146;14.024;2023-04-24T10:00:55;0.98;;;0.50;;
71959;SDS011;59832;51.146;14.024;2023-04-24T10:03:26;0.60;;;0.45;;
71959;SDS011;59832;51.146;14.024;2023-04-24T10:05:59;0.50;;;0.50;;
71959;SDS011;59832;51.146;14.024;2023-04-24T10:08:27;0.60;;;0.30;;
71959;SDS011;59832;51.146;14.024;2023-04-24T10:10:59;1.00;;;0.38;;
71959;SDS011;59832;51.146;14.024;2023-04-24T10:13:26;0.87;;;0.47;;
71959;SDS011;59832;51.146;14.024;2023-04-24T10:15:53;0.40;;;0.40;;
71959;SDS011;59832;51.146;14.024;2023-04-24T10:18:20;0.77;;;0.50;;
71959;SDS011;59832;51.146;14.024;2023-04-24T10:23:14;0.80;;;0.40;;
71959;SDS011;59832;51.146;14.024;2023-04-24T10:25:41;0.50;;;0.40;;
71959;SDS011;59832;51.146;14.024;2023-04-24T10:28:08;0.68;;;0.40;;
71959;SDS011;59832;51.146;14.024;2023-04-24T10:30:37;3.45;;;3.15;;
71959;SDS011;59832;51.146;14.024;2023-04-24T10:33:05;5.47;;;4.68;;
71959;SDS011;59832;51.146;14.024;2023-04-24T10:35:34;5.15;;;4.60;;
71959;SDS011;59832;51.146;14.024;2023-04-24T10:38:05;4.05;;;3.75;;
71959;SDS011;59832;51.146;14.024;2023-04-24T10:40:35;4.18;;;3.78;;
71959;SDS011;59832;51.146;14.024;2023-04-24T10:43:02;3.85;;;3.55;;
71959;SDS011;59832;51.146;14.024;2023-04-24T10:45:34;3.70;;;3.30;;
71959;SDS011;59832;51.146;14.024;2023-04-24T10:48:01;3.70;;;3.40;;
71959;SDS011;59832;51.146;14.024;2023-04-24T10:50:44;2.08;;;1.95;;
71959;SDS011;59832;51.146;14.024;2023-04-24T10:53:16;0.80;;;0.70;;
71959;SDS011;59832;51.146;14.024;2023-04-24T10:56:02;0.30;;;0.30;;
71959;SDS011;59832;51.146;14.024;2023-04-24T10:58:40;0.93;;;0.50;;
71959;SDS011;59832;51.146;14.024;2023-04-24T11:01:27;0.63;;;0.50;;
71959;SDS011;59832;51.146;14.024;2023-04-24T11:03:56;1.38;;;0.90;;
71959;SDS011;59832;51.146;14.024;2023-04-24T11:09:04;0.22;;;0.22;;
71959;SDS011;59832;51.146;14.024;2023-04-24T11:11:32;0.85;;;0.40;;
71959;SDS011;59832;51.146;14.024;2023-04-24T11:19:03;1.25;;;0.73;;
71959;SDS011;59832;51.146;14.024;2023-04-24T11:21:47;1.30;;;0.80;;
71959;SDS011;59832;51.146;14.024;2023-04-24T11:24:23;3.30;;;0.70;;
71959;SDS011;59832;51.146;14.024;2023-04-24T11:26:54;0.55;;;0.47;;
71959;SDS011;59832;51.146;14.024;2023-04-24T11:29:21;0.63;;;0.40;;
71959;SDS011;59832;51.146;14.024;2023-04-24T11:31:49;0.65;;;0.50;;
71959;SDS011;59832;51.146;14.024;2023-04-24T11:34:17;2.75;;;0.50;;
71959;SDS011;59832;51.146;14.024;2023-04-24T11:36:45;0.63;;;0.40;;
71959;SDS011;59832;51.146;14.024;2023-04-24T11:39:12;0.88;;;0.52;;
71959;SDS011;59832;51.146;14.024;2023-04-24T11:44:07;0.40;;;0.40;;
71959;SDS011;59832;51.146;14.024;2023-04-24T11:46:34;0.30;;;0.30;;
71959;SDS011;59832;51.146;14.024;2023-04-24T11:49:01;2.70;;;0.52;;
71959;SDS011;59832;51.146;14.024;2023-04-24T11:51:28;1.02;;;0.50;;
71959;SDS011;59832;51.146;14.024;2023-04-24T11:54:07;0.95;;;0.50;;
71959;SDS011;59832;51.146;14.024;2023-04-24T11:56:33;1.88;;;0.63;;
71959;SDS011;59832;51.146;14.024;2023-04-24T11:59:00;0.77;;;0.40;;
71959;SDS011;59832;51.146;14.024;2023-04-24T12:01:41;0.55;;;0.50;;
71959;SDS011;59832;51.146;14.024;2023-04-24T12:04:09;0.40;;;0.40;;
71959;SDS011;59832;51.146;14.024;2023-04-24T12:06:35;2.20;;;0.47;;
71959;SDS011;59832;51.146;14.024;2023-04-24T12:09:02;1.20;;;0.40;;
71959;SDS011;59832;51.146;14.024;2023-04-24T12:11:52;1.33;;;0.50;;
71959;SDS011;59832;51.146;14.024;2023-04-24T12:14:20;0.57;;;0.40;;
71959;SDS011;59832;51.146;14.024;2023-04-24T12:16:47;1.40;;;0.40;;
71959;SDS011;59832;51.146;14.024;2023-04-24T12:19:18;1.08;;;0.32;;
71959;SDS011;59832;51.146;14.024;2023-04-24T12:22:01;0.95;;;0.70;;
71959;SDS011;59832;51.146;14.024;2023-04-24T12:24:29;0.28;;;0.28;;
71959;SDS011;59832;51.146;14.024;2023-04-24T12:26:57;0.93;;;0.30;;
71959;SDS011;59832;51.146;14.024;2023-04-24T12:29:24;1.85;;;0.30;;
71959;SDS011;59832;51.146;14.024;2023-04-24T12:31:51;3.92;;;0.25;;
71959;SDS011;59832;51.146;14.024;2023-04-24T12:34:18;0.90;;;0.30;;
71959;SDS011;59832;51.146;14.024;2023-04-24T12:36:47;0.55;;;0.30;;
71959;SDS011;59832;51.146;14.024;2023-04-24T12:42:25;0.50;;;0.40;;
71959;SDS011;59832;51.146;14.024;2023-04-24T12:44:37;1.83;;;0.50;;
71959;SDS011;59832;51.146;14.024;2023-04-24T12:47:04;0.60;;;0.60;;
71959;SDS011;59832;51.146;14.024;2023-04-24T12:49:30;1.17;;;0.60;;
71959;SDS011;59832;51.146;14.024;2023-04-24T12:51:57;2.42;;;0.80;;
71959;SDS011;59832;51.146;14.024;2023-04-24T12:54:23;1.88;;;0.52;;
71959;SDS011;59832;51.146;14.024;2023-04-24T12:56:50;0.77;;;0.60;;
71959;SDS011;59832;51.146;14.024;2023-04-24T12:59:17;0.50;;;0.50;;
71959;SDS011;59832;51.146;14.024;2023-04-24T13:01:43;1.48;;;0.60;;
71959;SDS011;59832;51.146;14.024;2023-04-24T13:04:10;3.33;;;0.70;;
71959;SDS011;59832;51.146;14.024;2023-04-24T13:06:36;0.50;;;0.50;;
71959;SDS011;59832;51.146;14.024;2023-04-24T13:09:03;0.57;;;0.57;;
71959;SDS011;59832;51.146;14.024;2023-04-24T13:11:29;0.68;;;0.65;;
71959;SDS011;59832;51.146;14.024;2023-04-24T13:13:56;0.73;;;0.60;;
71959;SDS011;59832;51.146;14.024;2023-04-24T13:16:22;1.05;;;0.60;;
71959;SDS011;59832;51.146;14.024;2023-04-24T13:18:49;2.00;;;0.57;;
71959;SDS011;59832;51.146;14.024;2023-04-24T13:21:16;0.40;;;0.40;;
71959;SDS011;59832;51.146;14.024;2023-04-24T13:23:42;0.60;;;0.60;;
71959;SDS011;59832;51.146;14.024;2023-04-24T13:26:09;0.50;;;0.50;;
71959;SDS011;59832;51.146;14.024;2023-04-24T13:28:36;1.67;;;0.57;;
71959;SDS011;59832;51.146;14.024;2023-04-24T13:31:02;0.53;;;0.50;;
71959;SDS011;59832;51.146;14.024;2023-04-24T13:33:28;1.88;;;0.60;;
71959;SDS011;59832;51.146;14.024;2023-04-24T13:35:55;0.82;;;0.60;;
71959;SDS011;59832;51.146;14.024;2023-04-24T13:38:21;1.27;;;0.67;;
71959;SDS011;59832;51.146;14.024;2023-04-24T13:40:48;2.28;;;0.50;;
71959;SDS011;59832;51.146;14.024;2023-04-24T13:43:15;1.53;;;0.60;;
71959;SDS011;59832;51.146;14.024;2023-04-24T13:45:42;0.85;;;0.70;;
71959;SDS011;59832;51.146;14.024;2023-04-24T13:48:08;0.60;;;0.60;;
71959;SDS011;59832;51.146;14.024;2023-04-24T13:50:35;0.65;;;0.65;;
71959;SDS011;59832;51.146;14.024;2023-04-24T13:53:02;0.60;;;0.50;;
71959;SDS011;59832;51.146;14.024;2023-04-24T13:55:28;0.63;;;0.57;;
71959;SDS011;59832;51.146;14.024;2023-04-24T13:57:55;2.55;;;0.57;;
71959;SDS011;59832;51.146;14.024;2023-04-24T14:00:22;0.70;;;0.70;;
71959;SDS011;59832;51.146;14.024;2023-04-24T14:02:48;0.60;;;0.57;;
71959;SDS011;59832;51.146;14.024;2023-04-24T14:05:15;0.60;;;0.60;;
71959;SDS011;59832;51.146;14.024;2023-04-24T14:07:42;0.60;;;0.40;;
71959;SDS011;59832;51.146;14.024;2023-04-24T14:10:08;1.23;;;0.63;;
71959;SDS011;59832;51.146;14.024;2023-04-24T14:12:35;0.50;;;0.50;;
71959;SDS011;59832;51.146;14.024;2023-04-24T14:15:02;0.50;;;0.50;;
71959;SDS011;59832;51.146;14.024;2023-04-24T14:17:30;0.70;;;0.50;;
71959;SDS011;59832;51.146;14.024;2023-04-24T14:19:57;0.98;;;0.47;;
71959;SDS011;59832;51.146;14.024;2023-04-24T14:22:26;1.77;;;0.60;;
71959;SDS011;59832;51.146;14.024;2023-04-24T14:24:52;1.00;;;0.70;;
71959;SDS011;59832;51.146;14.024;2023-04-24T14:27:18;1.45;;;0.50;;
71959;SDS011;59832;51.146;14.024;2023-04-24T14:29:45;0.60;;;0.60;;
71959;SDS011;59832;51.146;14.024;2023-04-24T14:32:12;0.65;;;0.65;;
71959;SDS011;59832;51.146;14.024;2023-04-24T14:34:41;0.65;;;0.52;;
71959;SDS011;59832;51.146;14.024;2023-04-24T14:37:07;1.15;;;0.70;;
71959;SDS011;59832;51.146;14.024;2023-04-24T14:39:34;1.07;;;0.50;;
71959;SDS011;59832;51.146;14.024;2023-04-24T14:42:00;0.80;;;0.40;;
71959;SDS011;59832;51.146;14.024;2023-04-24T14:44:27;0.40;;;0.40;;
71959;SDS011;59832;51.146;14.024;2023-04-24T14:46:54;0.52;;;0.52;;
71959;SDS011;59832;51.146;14.024;2023-04-24T14:49:20;1.37;;;0.70;;
71959;SDS011;59832;51.146;14.024;2023-04-24T14:51:47;0.45;;;0.45;;
71959;SDS011;59832;51.146;14.024;2023-04-24T14:54:13;1.45;;;0.60;;
71959;SDS011;59832;51.146;14.024;2023-04-24T14:56:39;0.98;;;0.50;;
71959;SDS011;59832;51.146;14.024;2023-04-24T14:59:07;1.95;;;0.60;;